sensor_id;sensor_type;location;lat;lon;timestamp;P1;durP1;ratioP1;P2;durP2;ratioP2
75038;SDS011;63609;49.992;14.512;2023-02-18T00:01:32;5.55;;;2.88;;
75038;SDS011;63609;49.992;14.512;2023-02-18T00:04:10;4.45;;;2.17;;
75038;SDS011;63609;49.992;14.512;2023-02-18T00:06:37;5.72;;;2.75;;
75038;SDS011;63609;49.992;14.512;2023-02-18T00:09:13;3.78;;;2.20;;
75038;SDS011;63609;49.992;14.512;2023-02-18T00:11:42;7.15;;;2.35;;
75038;SDS011;63609;49.992;14.512;2023-02-18T00:14:12;4.43;;;2.30;;
75038;SDS011;63609;49.992;14.512;2023-02-18T00:16:40;3.08;;;1.75;;
75038;SDS011;63609;49.992;14.512;2023-02-18T00:19:10;6.55;;;2.53;;
75038;SDS011;63609;49.992;14.512;2023-02-18T00:21:41;3.75;;;2.35;;
75038;SDS011;63609;49.992;14.512;2023-02-18T00:24:10;3.58;;;1.67;;
75038;SDS011;63609;49.992;14.512;2023-02-18T00:26:41;4.53;;;1.98;;
75038;SDS011;63609;49.992;14.512;2023-02-18T00:29:19;3.90;;;2.10;;
75038;SDS011;63609;49.992;14.512;2023-02-18T00:34:42;4.65;;;2.53;;
75038;SDS011;63609;49.992;14.512;2023-02-18T00:37:11;4.15;;;2.55;;
75038;SDS011;63609;49.992;14.512;2023-02-18T00:39:39;4.97;;;2.60;;
75038;SDS011;63609;49.992;14.512;2023-02-18T00:42:06;4.63;;;2.20;;
75038;SDS011;63609;49.992;14.512;2023-02-18T00:44:33;3.25;;;2.00;;
75038;SDS011;63609;49.992;14.512;2023-02-18T00:47:00;6.20;;;2.10;;
75038;SDS011;63609;49.992;14.512;2023-02-18T00:49:31;4.95;;;2.90;;
75038;SDS011;63609;49.992;14.512;2023-02-18T00:52:02;4.18;;;2.53;;
75038;SDS011;63609;49.992;14.512;2023-02-18T00:54:31;6.40;;;2.30;;
75038;SDS011;63609;49.992;14.512;2023-02-18T00:57:00;6.30;;;2.10;;
75038;SDS011;63609;49.992;14.512;2023-02-18T00:59:27;5.20;;;3.00;;
75038;SDS011;63609;49.992;14.512;2023-02-18T01:01:54;2.80;;;1.60;;
75038;SDS011;63609;49.992;14.512;2023-02-18T01:04:24;3.08;;;1.40;;
75038;SDS011;63609;49.992;14.512;2023-02-18T01:07:01;5.15;;;2.28;;
75038;SDS011;63609;49.992;14.512;2023-02-18T01:09:28;3.30;;;1.70;;
75038;SDS011;63609;49.992;14.512;2023-02-18T01:11:56;5.05;;;2.20;;
75038;SDS011;63609;49.992;14.512;2023-02-18T01:14:53;4.32;;;1.85;;
75038;SDS011;63609;49.992;14.512;2023-02-18T01:17:19;2.70;;;1.50;;
75038;SDS011;63609;49.992;14.512;2023-02-18T01:19:46;3.05;;;1.52;;
75038;SDS011;63609;49.992;14.512;2023-02-18T01:22:13;3.55;;;1.50;;
75038;SDS011;63609;49.992;14.512;2023-02-18T01:24:40;3.75;;;1.85;;
75038;SDS011;63609;49.992;14.512;2023-02-18T01:27:17;2.85;;;1.35;;
75038;SDS011;63609;49.992;14.512;2023-02-18T01:29:44;3.40;;;1.88;;
75038;SDS011;63609;49.992;14.512;2023-02-18T01:32:11;5.47;;;1.00;;
75038;SDS011;63609;49.992;14.512;2023-02-18T01:34:39;3.50;;;1.60;;
75038;SDS011;63609;49.992;14.512;2023-02-18T01:37:06;2.90;;;1.52;;
75038;SDS011;63609;49.992;14.512;2023-02-18T01:39:34;3.17;;;1.40;;
75038;SDS011;63609;49.992;14.512;2023-02-18T01:42:04;3.20;;;1.70;;
75038;SDS011;63609;49.992;14.512;2023-02-18T01:44:36;3.42;;;1.73;;
75038;SDS011;63609;49.992;14.512;2023-02-18T01:47:03;3.10;;;1.80;;
75038;SDS011;63609;49.992;14.512;2023-02-18T01:49:34;3.83;;;1.90;;
75038;SDS011;63609;49.992;14.512;2023-02-18T01:52:19;6.75;;;1.95;;
75038;SDS011;63609;49.992;14.512;2023-02-18T01:54:54;3.22;;;1.67;;
75038;SDS011;63609;49.992;14.512;2023-02-18T01:57:28;3.35;;;1.40;;
75038;SDS011;63609;49.992;14.512;2023-02-18T02:02:49;3.80;;;1.33;;
75038;SDS011;63609;49.992;14.512;2023-02-18T02:05:19;3.10;;;1.60;;
75038;SDS011;63609;49.992;14.512;2023-02-18T02:07:47;3.20;;;1.40;;
75038;SDS011;63609;49.992;14.512;2023-02-18T02:10:17;2.58;;;1.30;;
75038;SDS011;63609;49.992;14.512;2023-02-18T02:25:58;2.25;;;1.08;;
75038;SDS011;63609;49.992;14.512;2023-02-18T02:33:39;2.70;;;1.52;;
75038;SDS011;63609;49.992;14.512;2023-02-18T02:36:30;2.53;;;1.23;;
75038;SDS011;63609;49.992;14.512;2023-02-18T02:42:02;2.13;;;1.40;;
75038;SDS011;63609;49.992;14.512;2023-02-18T02:48:27;3.55;;;1.50;;
75038;SDS011;63609;49.992;14.512;2023-02-18T02:55:13;3.67;;;1.92;;
75038;SDS011;63609;49.992;14.512;2023-02-18T02:58:19;3.58;;;1.48;;
75038;SDS011;63609;49.992;14.512;2023-02-18T03:15:51;2.83;;;1.50;;
75038;SDS011;63609;49.992;14.512;2023-02-18T03:24:15;3.05;;;1.63;;
75038;SDS011;63609;49.992;14.512;2023-02-18T03:26:51;2.72;;;1.17;;
75038;SDS011;63609;49.992;14.512;2023-02-18T03:29:26;3.40;;;1.52;;
75038;SDS011;63609;49.992;14.512;2023-02-18T03:31:55;4.32;;;1.90;;
75038;SDS011;63609;49.992;14.512;2023-02-18T03:34:27;2.97;;;1.48;;
75038;SDS011;63609;49.992;14.512;2023-02-18T03:36:57;3.13;;;1.63;;
75038;SDS011;63609;49.992;14.512;2023-02-18T03:39:29;3.42;;;1.77;;
75038;SDS011;63609;49.992;14.512;2023-02-18T03:42:06;2.55;;;1.13;;
75038;SDS011;63609;49.992;14.512;2023-02-18T03:44:43;4.60;;;1.98;;
75038;SDS011;63609;49.992;14.512;2023-02-18T03:47:52;3.90;;;1.95;;
75038;SDS011;63609;49.992;14.512;2023-02-18T03:50:19;2.88;;;1.35;;
75038;SDS011;63609;49.992;14.512;2023-02-18T03:52:53;3.13;;;1.35;;
75038;SDS011;63609;49.992;14.512;2023-02-18T03:55:20;3.42;;;1.60;;
75038;SDS011;63609;49.992;14.512;2023-02-18T03:57:54;3.22;;;1.67;;
75038;SDS011;63609;49.992;14.512;2023-02-18T04:00:22;2.95;;;1.05;;
75038;SDS011;63609;49.992;14.512;2023-02-18T04:03:03;3.45;;;1.40;;
75038;SDS011;63609;49.992;14.512;2023-02-18T04:05:30;2.88;;;1.45;;
75038;SDS011;63609;49.992;14.512;2023-02-18T04:07:57;3.58;;;1.48;;
75038;SDS011;63609;49.992;14.512;2023-02-18T04:10:26;3.65;;;1.35;;
75038;SDS011;63609;49.992;14.512;2023-02-18T04:12:53;2.67;;;1.40;;
75038;SDS011;63609;49.992;14.512;2023-02-18T04:15:27;2.97;;;1.50;;
75038;SDS011;63609;49.992;14.512;2023-02-18T04:17:54;4.20;;;2.10;;
75038;SDS011;63609;49.992;14.512;2023-02-18T04:20:22;3.45;;;1.60;;
75038;SDS011;63609;49.992;14.512;2023-02-18T04:22:59;3.15;;;1.65;;
75038;SDS011;63609;49.992;14.512;2023-02-18T04:25:27;3.92;;;1.52;;
75038;SDS011;63609;49.992;14.512;2023-02-18T04:28:09;3.03;;;1.90;;
75038;SDS011;63609;49.992;14.512;2023-02-18T04:30:40;3.60;;;1.67;;
75038;SDS011;63609;49.992;14.512;2023-02-18T04:33:07;3.35;;;1.65;;
75038;SDS011;63609;49.992;14.512;2023-02-18T04:38:02;3.40;;;1.67;;
75038;SDS011;63609;49.992;14.512;2023-02-18T04:40:29;3.75;;;1.50;;
75038;SDS011;63609;49.992;14.512;2023-02-18T04:42:59;3.33;;;1.30;;
75038;SDS011;63609;49.992;14.512;2023-02-18T04:46:05;4.82;;;1.40;;
75038;SDS011;63609;49.992;14.512;2023-02-18T04:48:32;2.85;;;1.40;;
75038;SDS011;63609;49.992;14.512;2023-02-18T04:51:00;2.88;;;1.55;;
75038;SDS011;63609;49.992;14.512;2023-02-18T04:53:30;4.30;;;1.42;;
75038;SDS011;63609;49.992;14.512;2023-02-18T04:55:57;2.75;;;1.30;;
75038;SDS011;63609;49.992;14.512;2023-02-18T04:58:27;3.25;;;1.45;;
75038;SDS011;63609;49.992;14.512;2023-02-18T05:00:58;3.20;;;1.40;;
75038;SDS011;63609;49.992;14.512;2023-02-18T05:03:30;3.20;;;1.50;;
75038;SDS011;63609;49.992;14.512;2023-02-18T05:05:58;2.70;;;1.40;;
75038;SDS011;63609;49.992;14.512;2023-02-18T05:08:42;2.80;;;1.60;;
75038;SDS011;63609;49.992;14.512;2023-02-18T05:11:09;3.08;;;1.38;;
75038;SDS011;63609;49.992;14.512;2023-02-18T05:13:36;3.10;;;1.58;;
75038;SDS011;63609;49.992;14.512;2023-02-18T05:16:07;4.43;;;2.00;;
75038;SDS011;63609;49.992;14.512;2023-02-18T05:18:35;2.67;;;1.30;;
75038;SDS011;63609;49.992;14.512;2023-02-18T05:23:55;3.83;;;1.65;;
75038;SDS011;63609;49.992;14.512;2023-02-18T05:26:24;3.53;;;1.70;;
75038;SDS011;63609;49.992;14.512;2023-02-18T05:29:07;4.88;;;1.77;;
75038;SDS011;63609;49.992;14.512;2023-02-18T05:31:38;3.95;;;1.45;;
75038;SDS011;63609;49.992;14.512;2023-02-18T05:34:06;3.22;;;1.58;;
75038;SDS011;63609;49.992;14.512;2023-02-18T05:36:36;2.97;;;1.40;;
75038;SDS011;63609;49.992;14.512;2023-02-18T05:42:46;2.30;;;1.35;;
75038;SDS011;63609;49.992;14.512;2023-02-18T05:45:30;3.00;;;1.27;;
75038;SDS011;63609;49.992;14.512;2023-02-18T05:50:00;1.63;;;0.98;;
75038;SDS011;63609;49.992;14.512;2023-02-18T05:53:46;3.90;;;1.50;;
75038;SDS011;63609;49.992;14.512;2023-02-18T05:57:12;3.88;;;1.60;;
75038;SDS011;63609;49.992;14.512;2023-02-18T06:00:37;4.78;;;1.63;;
75038;SDS011;63609;49.992;14.512;2023-02-18T06:03:43;2.70;;;1.30;;
75038;SDS011;63609;49.992;14.512;2023-02-18T06:06:49;3.75;;;1.60;;
75038;SDS011;63609;49.992;14.512;2023-02-18T06:09:18;4.75;;;1.52;;
75038;SDS011;63609;49.992;14.512;2023-02-18T06:11:50;4.25;;;1.52;;
75038;SDS011;63609;49.992;14.512;2023-02-18T06:14:35;2.88;;;1.23;;
75038;SDS011;63609;49.992;14.512;2023-02-18T06:17:58;5.07;;;1.52;;
75038;SDS011;63609;49.992;14.512;2023-02-18T06:20:26;2.65;;;1.40;;
75038;SDS011;63609;49.992;14.512;2023-02-18T06:23:45;2.75;;;1.40;;
75038;SDS011;63609;49.992;14.512;2023-02-18T06:26:57;3.28;;;1.50;;
75038;SDS011;63609;49.992;14.512;2023-02-18T06:30:00;4.35;;;1.27;;
75038;SDS011;63609;49.992;14.512;2023-02-18T06:32:44;2.55;;;1.33;;
75038;SDS011;63609;49.992;14.512;2023-02-18T06:35:22;3.13;;;1.40;;
75038;SDS011;63609;49.992;14.512;2023-02-18T06:38:09;2.20;;;1.25;;
75038;SDS011;63609;49.992;14.512;2023-02-18T06:44:32;4.07;;;1.40;;
75038;SDS011;63609;49.992;14.512;2023-02-18T06:48:31;2.85;;;1.45;;
75038;SDS011;63609;49.992;14.512;2023-02-18T06:51:40;3.22;;;0.90;;
75038;SDS011;63609;49.992;14.512;2023-02-18T06:54:33;3.63;;;1.35;;
75038;SDS011;63609;49.992;14.512;2023-02-18T06:57:03;2.97;;;1.55;;
75038;SDS011;63609;49.992;14.512;2023-02-18T06:59:33;2.42;;;1.33;;
75038;SDS011;63609;49.992;14.512;2023-02-18T07:02:35;2.38;;;1.38;;
75038;SDS011;63609;49.992;14.512;2023-02-18T07:05:02;2.20;;;1.15;;
75038;SDS011;63609;49.992;14.512;2023-02-18T07:07:42;2.53;;;1.23;;
75038;SDS011;63609;49.992;14.512;2023-02-18T07:10:19;2.67;;;1.35;;
75038;SDS011;63609;49.992;14.512;2023-02-18T07:13:27;2.45;;;1.20;;
75038;SDS011;63609;49.992;14.512;2023-02-18T07:16:11;3.40;;;1.40;;
75038;SDS011;63609;49.992;14.512;2023-02-18T07:19:31;3.30;;;1.40;;
75038;SDS011;63609;49.992;14.512;2023-02-18T07:23:04;3.25;;;1.58;;
75038;SDS011;63609;49.992;14.512;2023-02-18T07:26:10;3.47;;;1.40;;
75038;SDS011;63609;49.992;14.512;2023-02-18T07:28:43;2.78;;;1.00;;
75038;SDS011;63609;49.992;14.512;2023-02-18T07:34:55;2.53;;;0.98;;
75038;SDS011;63609;49.992;14.512;2023-02-18T07:37:22;2.33;;;0.98;;
75038;SDS011;63609;49.992;14.512;2023-02-18T07:40:16;2.55;;;1.48;;
75038;SDS011;63609;49.992;14.512;2023-02-18T07:42:44;1.98;;;0.98;;
75038;SDS011;63609;49.992;14.512;2023-02-18T07:45:13;1.70;;;1.02;;
75038;SDS011;63609;49.992;14.512;2023-02-18T07:48:04;2.80;;;1.10;;
75038;SDS011;63609;49.992;14.512;2023-02-18T07:50:40;2.55;;;1.10;;
75038;SDS011;63609;49.992;14.512;2023-02-18T07:53:19;2.75;;;1.50;;
75038;SDS011;63609;49.992;14.512;2023-02-18T07:55:46;2.53;;;0.88;;
75038;SDS011;63609;49.992;14.512;2023-02-18T07:58:20;1.95;;;1.02;;
75038;SDS011;63609;49.992;14.512;2023-02-18T08:01:16;2.20;;;0.98;;
75038;SDS011;63609;49.992;14.512;2023-02-18T08:03:50;2.75;;;1.65;;
75038;SDS011;63609;49.992;14.512;2023-02-18T08:13:58;1.70;;;0.80;;
75038;SDS011;63609;49.992;14.512;2023-02-18T08:16:28;1.67;;;0.80;;
75038;SDS011;63609;49.992;14.512;2023-02-18T08:19:42;2.13;;;1.17;;
75038;SDS011;63609;49.992;14.512;2023-02-18T08:22:30;2.08;;;0.80;;
75038;SDS011;63609;49.992;14.512;2023-02-18T08:29:32;1.75;;;0.70;;
75038;SDS011;63609;49.992;14.512;2023-02-18T08:32:43;2.53;;;1.42;;
75038;SDS011;63609;49.992;14.512;2023-02-18T08:35:11;1.85;;;0.93;;
75038;SDS011;63609;49.992;14.512;2023-02-18T08:39:05;1.90;;;0.70;;
75038;SDS011;63609;49.992;14.512;2023-02-18T08:42:16;2.22;;;0.90;;
75038;SDS011;63609;49.992;14.512;2023-02-18T08:46:41;1.15;;;0.73;;
75038;SDS011;63609;49.992;14.512;2023-02-18T08:50:56;1.02;;;0.50;;
75038;SDS011;63609;49.992;14.512;2023-02-18T08:58:21;1.02;;;0.60;;
75038;SDS011;63609;49.992;14.512;2023-02-18T09:01:30;1.17;;;0.65;;
75038;SDS011;63609;49.992;14.512;2023-02-18T09:04:06;1.90;;;0.55;;
75038;SDS011;63609;49.992;14.512;2023-02-18T09:06:35;1.30;;;0.52;;
75038;SDS011;63609;49.992;14.512;2023-02-18T09:09:21;1.17;;;0.50;;
75038;SDS011;63609;49.992;14.512;2023-02-18T09:17:30;1.13;;;0.60;;
75038;SDS011;63609;49.992;14.512;2023-02-18T09:20:29;0.25;;;0.13;;
75038;SDS011;63609;49.992;14.512;2023-02-18T09:27:20;0.82;;;0.47;;
75038;SDS011;63609;49.992;14.512;2023-02-18T09:34:09;0.57;;;0.30;;
75038;SDS011;63609;49.992;14.512;2023-02-18T09:36:39;0.45;;;0.28;;
75038;SDS011;63609;49.992;14.512;2023-02-18T09:49:34;0.95;;;0.40;;
75038;SDS011;63609;49.992;14.512;2023-02-18T09:54:43;0.90;;;0.60;;
75038;SDS011;63609;49.992;14.512;2023-02-18T09:58:12;2.13;;;0.68;;
75038;SDS011;63609;49.992;14.512;2023-02-18T10:00:46;1.27;;;0.60;;
75038;SDS011;63609;49.992;14.512;2023-02-18T10:03:17;2.05;;;1.05;;
75038;SDS011;63609;49.992;14.512;2023-02-18T10:05:55;0.95;;;0.68;;
75038;SDS011;63609;49.992;14.512;2023-02-18T10:08:33;1.60;;;0.88;;
75038;SDS011;63609;49.992;14.512;2023-02-18T10:16:14;2.97;;;0.93;;
75038;SDS011;63609;49.992;14.512;2023-02-18T10:18:45;1.55;;;0.93;;
75038;SDS011;63609;49.992;14.512;2023-02-18T10:21:18;1.13;;;0.80;;
75038;SDS011;63609;49.992;14.512;2023-02-18T10:24:43;2.75;;;1.10;;
75038;SDS011;63609;49.992;14.512;2023-02-18T10:28:28;1.90;;;0.95;;
75038;SDS011;63609;49.992;14.512;2023-02-18T10:31:36;1.40;;;0.77;;
75038;SDS011;63609;49.992;14.512;2023-02-18T10:34:46;1.83;;;0.90;;
75038;SDS011;63609;49.992;14.512;2023-02-18T10:46:48;1.73;;;0.55;;
75038;SDS011;63609;49.992;14.512;2023-02-18T10:55:19;1.40;;;0.82;;
75038;SDS011;63609;49.992;14.512;2023-02-18T11:01:19;1.80;;;1.00;;
75038;SDS011;63609;49.992;14.512;2023-02-18T11:04:04;1.27;;;0.63;;
75038;SDS011;63609;49.992;14.512;2023-02-18T11:15:28;1.90;;;1.00;;
75038;SDS011;63609;49.992;14.512;2023-02-18T11:25:38;2.65;;;1.70;;
75038;SDS011;63609;49.992;14.512;2023-02-18T11:30:38;2.65;;;1.35;;
75038;SDS011;63609;49.992;14.512;2023-02-18T11:33:14;4.10;;;1.63;;
75038;SDS011;63609;49.992;14.512;2023-02-18T11:36:02;2.55;;;1.55;;
75038;SDS011;63609;49.992;14.512;2023-02-18T11:38:42;3.88;;;1.80;;
75038;SDS011;63609;49.992;14.512;2023-02-18T11:41:14;3.67;;;2.15;;
75038;SDS011;63609;49.992;14.512;2023-02-18T11:43:46;2.97;;;1.63;;
75038;SDS011;63609;49.992;14.512;2023-02-18T11:46:20;3.22;;;1.92;;
75038;SDS011;63609;49.992;14.512;2023-02-18T11:48:49;3.72;;;1.98;;
75038;SDS011;63609;49.992;14.512;2023-02-18T11:54:00;5.35;;;2.70;;
75038;SDS011;63609;49.992;14.512;2023-02-18T11:56:30;4.07;;;2.60;;
75038;SDS011;63609;49.992;14.512;2023-02-18T11:58:59;3.95;;;2.20;;
75038;SDS011;63609;49.992;14.512;2023-02-18T12:04:16;5.35;;;2.17;;
75038;SDS011;63609;49.992;14.512;2023-02-18T12:09:18;7.22;;;2.60;;
75038;SDS011;63609;49.992;14.512;2023-02-18T12:11:52;4.78;;;2.85;;
75038;SDS011;63609;49.992;14.512;2023-02-18T12:20:25;4.15;;;2.45;;
75038;SDS011;63609;49.992;14.512;2023-02-18T12:34:56;5.00;;;3.40;;
75038;SDS011;63609;49.992;14.512;2023-02-18T12:37:51;3.45;;;2.47;;
75038;SDS011;63609;49.992;14.512;2023-02-18T12:40:46;3.70;;;2.10;;
75038;SDS011;63609;49.992;14.512;2023-02-18T12:57:46;4.90;;;2.95;;
75038;SDS011;63609;49.992;14.512;2023-02-18T13:06:23;5.57;;;2.92;;
75038;SDS011;63609;49.992;14.512;2023-02-18T13:14:17;4.65;;;2.88;;
75038;SDS011;63609;49.992;14.512;2023-02-18T13:17:03;5.05;;;3.45;;
75038;SDS011;63609;49.992;14.512;2023-02-18T13:19:52;4.20;;;2.90;;
75038;SDS011;63609;49.992;14.512;2023-02-18T13:25:16;5.53;;;3.67;;
75038;SDS011;63609;49.992;14.512;2023-02-18T13:27:47;5.43;;;3.00;;
75038;SDS011;63609;49.992;14.512;2023-02-18T13:30:42;4.60;;;2.85;;
75038;SDS011;63609;49.992;14.512;2023-02-18T13:36:12;4.03;;;2.40;;
75038;SDS011;63609;49.992;14.512;2023-02-18T13:41:37;3.58;;;2.05;;
75038;SDS011;63609;49.992;14.512;2023-02-18T13:44:08;4.35;;;2.50;;
75038;SDS011;63609;49.992;14.512;2023-02-18T13:46:56;4.15;;;2.40;;
75038;SDS011;63609;49.992;14.512;2023-02-18T13:49:34;4.55;;;2.30;;
75038;SDS011;63609;49.992;14.512;2023-02-18T13:52:05;4.50;;;2.83;;
75038;SDS011;63609;49.992;14.512;2023-02-18T13:54:43;5.30;;;2.70;;
75038;SDS011;63609;49.992;14.512;2023-02-18T13:57:16;4.63;;;2.92;;
75038;SDS011;63609;49.992;14.512;2023-02-18T13:59:48;5.20;;;3.50;;
75038;SDS011;63609;49.992;14.512;2023-02-18T14:04:54;5.30;;;2.92;;
75038;SDS011;63609;49.992;14.512;2023-02-18T14:20:30;4.30;;;2.50;;
75038;SDS011;63609;49.992;14.512;2023-02-18T14:31:04;4.15;;;2.25;;
75038;SDS011;63609;49.992;14.512;2023-02-18T14:33:33;6.22;;;2.40;;
75038;SDS011;63609;49.992;14.512;2023-02-18T14:47:13;5.07;;;3.00;;
75038;SDS011;63609;49.992;14.512;2023-02-18T14:49:53;4.88;;;2.70;;
75038;SDS011;63609;49.992;14.512;2023-02-18T14:52:36;6.60;;;2.85;;
75038;SDS011;63609;49.992;14.512;2023-02-18T14:55:26;5.22;;;2.42;;
75038;SDS011;63609;49.992;14.512;2023-02-18T14:58:00;4.95;;;2.90;;
75038;SDS011;63609;49.992;14.512;2023-02-18T15:00:32;3.63;;;2.33;;
75038;SDS011;63609;49.992;14.512;2023-02-18T15:03:12;3.65;;;2.00;;
75038;SDS011;63609;49.992;14.512;2023-02-18T15:05:40;5.18;;;2.33;;
75038;SDS011;63609;49.992;14.512;2023-02-18T15:08:15;5.68;;;2.75;;
75038;SDS011;63609;49.992;14.512;2023-02-18T15:10:55;5.05;;;3.25;;
75038;SDS011;63609;49.992;14.512;2023-02-18T15:13:36;7.47;;;2.80;;
75038;SDS011;63609;49.992;14.512;2023-02-18T15:16:14;4.05;;;1.90;;
75038;SDS011;63609;49.992;14.512;2023-02-18T15:18:53;5.50;;;3.00;;
75038;SDS011;63609;49.992;14.512;2023-02-18T15:21:26;5.53;;;2.58;;
75038;SDS011;63609;49.992;14.512;2023-02-18T15:24:16;6.13;;;2.90;;
75038;SDS011;63609;49.992;14.512;2023-02-18T15:26:54;4.85;;;2.60;;
75038;SDS011;63609;49.992;14.512;2023-02-18T15:29:28;5.43;;;2.83;;
75038;SDS011;63609;49.992;14.512;2023-02-18T15:31:59;4.28;;;2.40;;
75038;SDS011;63609;49.992;14.512;2023-02-18T15:34:41;4.18;;;2.60;;
75038;SDS011;63609;49.992;14.512;2023-02-18T15:37:11;4.68;;;2.70;;
75038;SDS011;63609;49.992;14.512;2023-02-18T15:39:44;3.92;;;2.15;;
75038;SDS011;63609;49.992;14.512;2023-02-18T15:44:44;3.97;;;2.35;;
75038;SDS011;63609;49.992;14.512;2023-02-18T15:47:14;5.15;;;2.20;;
75038;SDS011;63609;49.992;14.512;2023-02-18T15:49:48;4.45;;;2.17;;
75038;SDS011;63609;49.992;14.512;2023-02-18T15:52:26;3.83;;;2.00;;
75038;SDS011;63609;49.992;14.512;2023-02-18T15:55:21;4.45;;;2.00;;
75038;SDS011;63609;49.992;14.512;2023-02-18T15:58:01;4.63;;;2.38;;
75038;SDS011;63609;49.992;14.512;2023-02-18T16:00:34;3.83;;;2.50;;
75038;SDS011;63609;49.992;14.512;2023-02-18T16:03:21;3.17;;;1.90;;
75038;SDS011;63609;49.992;14.512;2023-02-18T16:06:07;4.47;;;2.53;;
75038;SDS011;63609;49.992;14.512;2023-02-18T16:08:37;6.53;;;2.50;;
75038;SDS011;63609;49.992;14.512;2023-02-18T16:11:08;4.20;;;2.45;;
75038;SDS011;63609;49.992;14.512;2023-02-18T16:13:48;5.18;;;2.40;;
75038;SDS011;63609;49.992;14.512;2023-02-18T16:16:27;4.35;;;2.40;;
75038;SDS011;63609;49.992;14.512;2023-02-18T16:19:02;4.82;;;2.10;;
75038;SDS011;63609;49.992;14.512;2023-02-18T16:21:37;5.60;;;2.17;;
75038;SDS011;63609;49.992;14.512;2023-02-18T16:27:15;3.72;;;2.17;;
75038;SDS011;63609;49.992;14.512;2023-02-18T16:29:43;2.95;;;1.85;;
75038;SDS011;63609;49.992;14.512;2023-02-18T16:32:10;3.22;;;1.65;;
75038;SDS011;63609;49.992;14.512;2023-02-18T16:34:37;4.38;;;1.88;;
75038;SDS011;63609;49.992;14.512;2023-02-18T16:37:05;2.85;;;1.50;;
75038;SDS011;63609;49.992;14.512;2023-02-18T16:39:52;2.95;;;1.67;;
75038;SDS011;63609;49.992;14.512;2023-02-18T16:42:20;5.38;;;2.08;;
75038;SDS011;63609;49.992;14.512;2023-02-18T16:44:53;2.92;;;1.55;;
75038;SDS011;63609;49.992;14.512;2023-02-18T16:47:20;2.45;;;1.17;;
75038;SDS011;63609;49.992;14.512;2023-02-18T16:49:48;4.28;;;1.15;;
75038;SDS011;63609;49.992;14.512;2023-02-18T16:52:16;2.15;;;1.10;;
75038;SDS011;63609;49.992;14.512;2023-02-18T16:54:45;3.17;;;1.40;;
75038;SDS011;63609;49.992;14.512;2023-02-18T16:57:18;2.90;;;1.30;;
75038;SDS011;63609;49.992;14.512;2023-02-18T16:59:46;1.95;;;1.00;;
75038;SDS011;63609;49.992;14.512;2023-02-18T17:02:17;2.17;;;1.00;;
75038;SDS011;63609;49.992;14.512;2023-02-18T17:04:46;1.75;;;0.98;;
75038;SDS011;63609;49.992;14.512;2023-02-18T17:07:18;5.20;;;1.60;;
75038;SDS011;63609;49.992;14.512;2023-02-18T17:09:45;2.50;;;0.63;;
75038;SDS011;63609;49.992;14.512;2023-02-18T17:12:13;1.50;;;0.70;;
75038;SDS011;63609;49.992;14.512;2023-02-18T17:14:40;2.33;;;0.90;;
75038;SDS011;63609;49.992;14.512;2023-02-18T17:17:10;1.67;;;0.68;;
75038;SDS011;63609;49.992;14.512;2023-02-18T17:19:43;1.75;;;0.90;;
75038;SDS011;63609;49.992;14.512;2023-02-18T17:22:11;2.05;;;0.90;;
75038;SDS011;63609;49.992;14.512;2023-02-18T17:24:41;2.13;;;0.70;;
75038;SDS011;63609;49.992;14.512;2023-02-18T17:27:09;1.48;;;0.68;;
75038;SDS011;63609;49.992;14.512;2023-02-18T17:29:36;2.05;;;0.75;;
75038;SDS011;63609;49.992;14.512;2023-02-18T17:32:04;1.98;;;1.13;;
75038;SDS011;63609;49.992;14.512;2023-02-18T17:34:32;2.13;;;0.80;;
75038;SDS011;63609;49.992;14.512;2023-02-18T17:37:03;1.52;;;0.60;;
75038;SDS011;63609;49.992;14.512;2023-02-18T17:39:32;1.23;;;0.65;;
75038;SDS011;63609;49.992;14.512;2023-02-18T17:41:59;0.82;;;0.50;;
75038;SDS011;63609;49.992;14.512;2023-02-18T17:44:28;1.60;;;0.70;;
75038;SDS011;63609;49.992;14.512;2023-02-18T17:46:55;1.80;;;0.73;;
75038;SDS011;63609;49.992;14.512;2023-02-18T17:49:22;1.80;;;0.90;;
75038;SDS011;63609;49.992;14.512;2023-02-18T17:51:58;1.60;;;0.93;;
75038;SDS011;63609;49.992;14.512;2023-02-18T17:54:29;1.40;;;0.70;;
75038;SDS011;63609;49.992;14.512;2023-02-18T17:56:57;1.83;;;0.90;;
75038;SDS011;63609;49.992;14.512;2023-02-18T17:59:24;1.63;;;0.80;;
75038;SDS011;63609;49.992;14.512;2023-02-18T18:01:54;1.73;;;0.80;;
75038;SDS011;63609;49.992;14.512;2023-02-18T18:04:21;2.72;;;0.70;;
75038;SDS011;63609;49.992;14.512;2023-02-18T18:06:50;1.20;;;0.68;;
75038;SDS011;63609;49.992;14.512;2023-02-18T18:09:17;1.20;;;0.70;;
75038;SDS011;63609;49.992;14.512;2023-02-18T18:14:50;2.05;;;0.98;;
75038;SDS011;63609;49.992;14.512;2023-02-18T18:18:05;1.70;;;0.60;;
75038;SDS011;63609;49.992;14.512;2023-02-18T18:20:39;1.40;;;0.80;;
75038;SDS011;63609;49.992;14.512;2023-02-18T18:23:14;1.50;;;0.70;;
75038;SDS011;63609;49.992;14.512;2023-02-18T18:25:53;1.40;;;0.77;;
75038;SDS011;63609;49.992;14.512;2023-02-18T18:28:26;1.63;;;0.80;;
75038;SDS011;63609;49.992;14.512;2023-02-18T18:30:58;1.80;;;0.60;;
75038;SDS011;63609;49.992;14.512;2023-02-18T18:36:21;1.20;;;0.60;;
75038;SDS011;63609;49.992;14.512;2023-02-18T18:38:51;1.60;;;0.68;;
75038;SDS011;63609;49.992;14.512;2023-02-18T18:41:20;2.35;;;0.70;;
75038;SDS011;63609;49.992;14.512;2023-02-18T18:43:48;1.40;;;0.80;;
75038;SDS011;63609;49.992;14.512;2023-02-18T18:46:15;1.08;;;0.60;;
75038;SDS011;63609;49.992;14.512;2023-02-18T18:48:50;2.20;;;1.00;;
75038;SDS011;63609;49.992;14.512;2023-02-18T18:51:17;2.88;;;1.40;;
75038;SDS011;63609;49.992;14.512;2023-02-18T18:53:50;6.38;;;0.93;;
75038;SDS011;63609;49.992;14.512;2023-02-18T18:56:19;2.25;;;0.77;;
75038;SDS011;63609;49.992;14.512;2023-02-18T18:58:47;1.52;;;0.70;;
75038;SDS011;63609;49.992;14.512;2023-02-18T19:01:16;1.88;;;0.90;;
75038;SDS011;63609;49.992;14.512;2023-02-18T19:03:47;1.52;;;0.80;;
75038;SDS011;63609;49.992;14.512;2023-02-18T19:06:17;2.47;;;0.82;;
75038;SDS011;63609;49.992;14.512;2023-02-18T19:08:45;1.83;;;0.70;;
75038;SDS011;63609;49.992;14.512;2023-02-18T19:11:18;0.95;;;0.70;;
75038;SDS011;63609;49.992;14.512;2023-02-18T19:13:46;1.60;;;0.70;;
75038;SDS011;63609;49.992;14.512;2023-02-18T19:16:18;1.63;;;0.60;;
75038;SDS011;63609;49.992;14.512;2023-02-18T19:18:53;2.10;;;0.90;;
75038;SDS011;63609;49.992;14.512;2023-02-18T19:21:20;1.88;;;0.88;;
75038;SDS011;63609;49.992;14.512;2023-02-18T19:23:47;1.90;;;0.60;;
75038;SDS011;63609;49.992;14.512;2023-02-18T19:26:14;1.63;;;0.57;;
75038;SDS011;63609;49.992;14.512;2023-02-18T19:28:43;1.23;;;0.63;;
75038;SDS011;63609;49.992;14.512;2023-02-18T19:31:11;2.60;;;0.90;;
75038;SDS011;63609;49.992;14.512;2023-02-18T19:33:39;1.75;;;0.77;;
75038;SDS011;63609;49.992;14.512;2023-02-18T19:36:06;1.10;;;0.60;;
75038;SDS011;63609;49.992;14.512;2023-02-18T19:38:36;2.35;;;0.60;;
75038;SDS011;63609;49.992;14.512;2023-02-18T19:41:08;1.05;;;0.60;;
75038;SDS011;63609;49.992;14.512;2023-02-18T19:43:40;4.20;;;0.73;;
75038;SDS011;63609;49.992;14.512;2023-02-18T19:46:13;1.02;;;0.60;;
75038;SDS011;63609;49.992;14.512;2023-02-18T19:48:42;1.40;;;0.50;;
75038;SDS011;63609;49.992;14.512;2023-02-18T19:51:27;0.88;;;0.45;;
75038;SDS011;63609;49.992;14.512;2023-02-18T19:53:55;1.55;;;0.80;;
75038;SDS011;63609;49.992;14.512;2023-02-18T19:56:23;2.05;;;0.63;;
75038;SDS011;63609;49.992;14.512;2023-02-18T19:58:54;0.98;;;0.50;;
75038;SDS011;63609;49.992;14.512;2023-02-18T20:01:22;1.08;;;0.50;;